IWY271 MYNN-MBPV
Flight info
| Callsign | IWY271 |
|---|---|
| Flight time | 0h 52m |
| Altitude | 33000 |
| Route | BOSAR DCT SOLEI |
| Aircraft | CRJ9/M-SDFGIRWY/S |
Departure
| Time | 2026-05-08 01:32 |
|---|---|
| Airport | Lynden Pindling International Airport (MYNN) |
Arrival
| Time | 2026-05-08 02:25 |
|---|---|
| Airport | Providenciales International Airport (MBPV) |
| Time | Latitude | Longitude | Altitude | Speed | Heading |
|---|---|---|---|---|---|
| 2026-05-08 01:16 | 25.04827 | -77.46678 | 15 ft | 0 kts | 31° |
| 2026-05-08 01:28 | 25.04828 | -77.46677 | 15 ft | 0 kts | 44° |
| 2026-05-08 01:29 | 25.04825 | -77.46658 | 16 ft | 6 kts | 122° |
| 2026-05-08 01:29 | 25.04792 | -77.46654 | 17 ft | 2 kts | 214° |
| 2026-05-08 01:29 | 25.04773 | -77.46670 | 15 ft | 5 kts | 217° |
| 2026-05-08 01:29 | 25.04752 | -77.46689 | 15 ft | 6 kts | 221° |
| 2026-05-08 01:30 | 25.04720 | -77.46727 | 15 ft | 7 kts | 236° |
| 2026-05-08 01:30 | 25.04722 | -77.46791 | 16 ft | 6 kts | 306° |
| 2026-05-08 01:30 | 25.04747 | -77.46822 | 16 ft | 11 kts | 313° |
| 2026-05-08 01:30 | 25.04799 | -77.46917 | 16 ft | 19 kts | 272° |
| 2026-05-08 01:31 | 25.04791 | -77.46993 | 19 ft | 11 kts | 259° |
| 2026-05-08 01:31 | 25.04774 | -77.47065 | 20 ft | 3 kts | 229° |
| 2026-05-08 01:31 | 25.04741 | -77.47071 | 19 ft | 5 kts | 158° |
| 2026-05-08 01:31 | 25.04633 | -77.46955 | 20 ft | 45 kts | 135° |
| 2026-05-08 01:32 | 25.04269 | -77.46556 | 18 ft | 101 kts | 135° |
| 2026-05-08 01:32 | 25.03672 | -77.45891 | 18 ft | 144 kts | 135° |
| 2026-05-08 01:32 | 25.02887 | -77.45008 | 93 ft | 173 kts | 134° |
| 2026-05-08 01:32 | 25.02062 | -77.44091 | 750 ft | 168 kts | 133° |
| 2026-05-08 01:33 | 25.01418 | -77.42963 | 1051 ft | 188 kts | 109° |
| 2026-05-08 01:33 | 25.00915 | -77.41545 | 1615 ft | 209 kts | 113° |
| 2026-05-08 01:33 | 25.00233 | -77.40039 | 2250 ft | 228 kts | 120° |
| 2026-05-08 01:33 | 24.99337 | -77.38521 | 2950 ft | 243 kts | 126° |
| 2026-05-08 01:34 | 24.98303 | -77.36986 | 3696 ft | 255 kts | 128° |
| 2026-05-08 01:34 | 24.97218 | -77.35414 | 4568 ft | 260 kts | 128° |
| 2026-05-08 01:34 | 24.96118 | -77.33806 | 5441 ft | 265 kts | 127° |
| 2026-05-08 01:34 | 24.95005 | -77.32169 | 6301 ft | 269 kts | 127° |
| 2026-05-08 01:35 | 24.93886 | -77.30495 | 7104 ft | 273 kts | 126° |
| 2026-05-08 01:35 | 24.92760 | -77.28791 | 7930 ft | 276 kts | 125° |
| 2026-05-08 01:35 | 24.91622 | -77.27067 | 8748 ft | 280 kts | 125° |
| 2026-05-08 01:35 | 24.90468 | -77.25327 | 9547 ft | 283 kts | 124° |
| 2026-05-08 01:36 | 24.89301 | -77.23562 | 10303 ft | 287 kts | 124° |
| 2026-05-08 01:36 | 24.88121 | -77.21770 | 11004 ft | 291 kts | 124° |
| 2026-05-08 01:36 | 24.86953 | -77.19978 | 11699 ft | 294 kts | 124° |
| 2026-05-08 01:36 | 24.85760 | -77.18126 | 12398 ft | 298 kts | 124° |
| 2026-05-08 01:37 | 24.84535 | -77.16264 | 13100 ft | 302 kts | 125° |
| 2026-05-08 01:37 | 24.83286 | -77.14381 | 13793 ft | 306 kts | 126° |
| 2026-05-08 01:37 | 24.82018 | -77.12472 | 14417 ft | 310 kts | 125° |
| 2026-05-08 01:37 | 24.80740 | -77.10548 | 15035 ft | 313 kts | 125° |
| 2026-05-08 01:38 | 24.79449 | -77.08604 | 15642 ft | 317 kts | 125° |
| 2026-05-08 01:38 | 24.78140 | -77.06631 | 16249 ft | 320 kts | 125° |
| 2026-05-08 01:38 | 24.76818 | -77.04643 | 16862 ft | 323 kts | 125° |
| 2026-05-08 01:38 | 24.75500 | -77.02658 | 17463 ft | 326 kts | 125° |
| 2026-05-08 01:39 | 24.74154 | -77.00632 | 18065 ft | 330 kts | 125° |
| 2026-05-08 01:39 | 24.72794 | -76.98587 | 18600 ft | 333 kts | 125° |
| 2026-05-08 01:39 | 24.71416 | -76.96517 | 19078 ft | 337 kts | 125° |
| 2026-05-08 01:39 | 24.70020 | -76.94422 | 19550 ft | 341 kts | 125° |
| 2026-05-08 01:40 | 24.68609 | -76.92303 | 20025 ft | 345 kts | 126° |
| 2026-05-08 01:40 | 24.67183 | -76.90164 | 20491 ft | 349 kts | 126° |
| 2026-05-08 01:40 | 24.65739 | -76.87996 | 20949 ft | 353 kts | 126° |
| 2026-05-08 01:40 | 24.64283 | -76.85804 | 21409 ft | 357 kts | 126° |
| 2026-05-08 01:41 | 24.62804 | -76.83587 | 21849 ft | 361 kts | 125° |
| 2026-05-08 01:41 | 24.61361 | -76.81316 | 22284 ft | 364 kts | 123° |
| 2026-05-08 01:41 | 24.59937 | -76.78991 | 22722 ft | 368 kts | 123° |
| 2026-05-08 01:41 | 24.58502 | -76.76641 | 23154 ft | 372 kts | 123° |
| 2026-05-08 01:42 | 24.57052 | -76.74271 | 23571 ft | 375 kts | 124° |
| 2026-05-08 01:42 | 24.55593 | -76.71922 | 23946 ft | 378 kts | 124° |
| 2026-05-08 01:42 | 24.54106 | -76.69531 | 24322 ft | 380 kts | 124° |
| 2026-05-08 01:42 | 24.52609 | -76.67133 | 24700 ft | 382 kts | 124° |
| 2026-05-08 01:43 | 24.51099 | -76.64717 | 25066 ft | 384 kts | 124° |
| 2026-05-08 01:43 | 24.49584 | -76.62293 | 25428 ft | 386 kts | 124° |
| 2026-05-08 01:43 | 24.48062 | -76.59856 | 25786 ft | 388 kts | 124° |
| 2026-05-08 01:43 | 24.46526 | -76.57405 | 26140 ft | 390 kts | 124° |
| 2026-05-08 01:44 | 24.44986 | -76.54945 | 26485 ft | 392 kts | 124° |
| 2026-05-08 01:44 | 24.43439 | -76.52472 | 26835 ft | 394 kts | 124° |
| 2026-05-08 01:44 | 24.41881 | -76.49987 | 27166 ft | 396 kts | 124° |
| 2026-05-08 01:44 | 24.40313 | -76.47486 | 27491 ft | 398 kts | 124° |
| 2026-05-08 01:45 | 24.38739 | -76.44978 | 27828 ft | 400 kts | 124° |
| 2026-05-08 01:45 | 24.37155 | -76.42457 | 28151 ft | 402 kts | 124° |
| 2026-05-08 01:45 | 24.35564 | -76.39923 | 28462 ft | 404 kts | 124° |
| 2026-05-08 01:45 | 24.33986 | -76.37411 | 28771 ft | 406 kts | 123° |
| 2026-05-08 01:46 | 24.32381 | -76.34856 | 29070 ft | 408 kts | 123° |
| 2026-05-08 01:46 | 24.30763 | -76.32290 | 29379 ft | 410 kts | 123° |
| 2026-05-08 01:46 | 24.29140 | -76.29708 | 29677 ft | 412 kts | 123° |
| 2026-05-08 01:46 | 24.27510 | -76.27121 | 29961 ft | 414 kts | 123° |
| 2026-05-08 01:47 | 24.25871 | -76.24518 | 30229 ft | 415 kts | 123° |
| 2026-05-08 01:47 | 24.24223 | -76.21905 | 30483 ft | 417 kts | 123° |
| 2026-05-08 01:47 | 24.22575 | -76.19292 | 30728 ft | 418 kts | 123° |
| 2026-05-08 01:48 | 24.19254 | -76.14033 | 31204 ft | 421 kts | 123° |
| 2026-05-08 01:48 | 24.17585 | -76.11392 | 31429 ft | 422 kts | 123° |
| 2026-05-08 01:48 | 24.15911 | -76.08741 | 31662 ft | 424 kts | 123° |
| 2026-05-08 01:48 | 24.14226 | -76.06080 | 31839 ft | 426 kts | 124° |
| 2026-05-08 01:49 | 24.12536 | -76.03409 | 32116 ft | 426 kts | 124° |
| 2026-05-08 01:49 | 24.10836 | -76.00745 | 32395 ft | 425 kts | 124° |
| 2026-05-08 01:49 | 24.09137 | -75.98097 | 32669 ft | 425 kts | 124° |
| 2026-05-08 01:49 | 24.07459 | -75.95484 | 32892 ft | 426 kts | 124° |
| 2026-05-08 01:50 | 24.05756 | -75.92806 | 32993 ft | 430 kts | 124° |
| 2026-05-08 01:50 | 24.04042 | -75.90090 | 33042 ft | 436 kts | 124° |
| 2026-05-08 01:50 | 24.00537 | -75.84557 | 33072 ft | 449 kts | 124° |
| 2026-05-08 01:51 | 23.96921 | -75.78877 | 33086 ft | 461 kts | 124° |
| 2026-05-08 01:51 | 23.93207 | -75.73044 | 33086 ft | 473 kts | 124° |
| 2026-05-08 01:52 | 23.89397 | -75.67063 | 33085 ft | 485 kts | 124° |
| 2026-05-08 01:52 | 23.85489 | -75.60940 | 33083 ft | 496 kts | 124° |
| 2026-05-08 01:53 | 23.81521 | -75.54730 | 33085 ft | 506 kts | 124° |
| 2026-05-08 01:53 | 23.77458 | -75.48375 | 33084 ft | 514 kts | 124° |
| 2026-05-08 01:54 | 23.73331 | -75.41933 | 33081 ft | 521 kts | 124° |
| 2026-05-08 01:54 | 23.69147 | -75.35410 | 33079 ft | 526 kts | 124° |
| 2026-05-08 01:55 | 23.64929 | -75.28839 | 33079 ft | 530 kts | 124° |
| 2026-05-08 01:55 | 23.60698 | -75.22261 | 33071 ft | 527 kts | 124° |
| 2026-05-08 01:56 | 23.56534 | -75.15792 | 33067 ft | 521 kts | 124° |
| 2026-05-08 01:56 | 23.52388 | -75.09361 | 33067 ft | 516 kts | 124° |
| 2026-05-08 01:57 | 23.48270 | -75.02980 | 33066 ft | 513 kts | 124° |
| 2026-05-08 01:57 | 23.44177 | -74.96646 | 33069 ft | 510 kts | 124° |
| 2026-05-08 01:58 | 23.40092 | -74.90333 | 33069 ft | 508 kts | 124° |
| 2026-05-08 01:58 | 23.36031 | -74.84063 | 33074 ft | 506 kts | 124° |
| 2026-05-08 01:59 | 23.31980 | -74.77818 | 33071 ft | 504 kts | 124° |
| 2026-05-08 01:59 | 23.27966 | -74.71636 | 33074 ft | 503 kts | 124° |
| 2026-05-08 02:00 | 23.23928 | -74.65426 | 33074 ft | 502 kts | 124° |
| 2026-05-08 02:00 | 23.19900 | -74.59238 | 33074 ft | 501 kts | 124° |
| 2026-05-08 02:01 | 23.15873 | -74.53059 | 33073 ft | 500 kts | 124° |
| 2026-05-08 02:01 | 23.11846 | -74.46889 | 33076 ft | 500 kts | 124° |
| 2026-05-08 02:02 | 23.07827 | -74.40736 | 33076 ft | 499 kts | 124° |
| 2026-05-08 02:02 | 23.03805 | -74.34587 | 33078 ft | 499 kts | 124° |
| 2026-05-08 02:03 | 22.99777 | -74.28436 | 33072 ft | 498 kts | 124° |
| 2026-05-08 02:03 | 22.95786 | -74.22348 | 33076 ft | 498 kts | 124° |
| 2026-05-08 02:04 | 22.91765 | -74.16224 | 33085 ft | 498 kts | 124° |
| 2026-05-08 02:04 | 22.87739 | -74.10097 | 33082 ft | 498 kts | 124° |
| 2026-05-08 02:05 | 22.83719 | -74.03987 | 33075 ft | 498 kts | 124° |
| 2026-05-08 02:05 | 22.79692 | -73.97874 | 33078 ft | 497 kts | 124° |
| 2026-05-08 02:06 | 22.75666 | -73.91769 | 33079 ft | 497 kts | 124° |
| 2026-05-08 02:06 | 22.71644 | -73.85675 | 33083 ft | 497 kts | 124° |
| 2026-05-08 02:07 | 22.67642 | -73.79624 | 33081 ft | 497 kts | 124° |
| 2026-05-08 02:07 | 22.63591 | -73.73502 | 33080 ft | 497 kts | 124° |
| 2026-05-08 02:08 | 22.61582 | -73.70468 | 32518 ft | 506 kts | 124° |
| 2026-05-08 02:08 | 22.59554 | -73.67413 | 31829 ft | 495 kts | 124° |
| 2026-05-08 02:08 | 22.57562 | -73.64413 | 31161 ft | 486 kts | 124° |
| 2026-05-08 02:08 | 22.55610 | -73.61473 | 30522 ft | 478 kts | 124° |
| 2026-05-08 02:09 | 22.53686 | -73.58572 | 29854 ft | 471 kts | 123° |
| 2026-05-08 02:09 | 22.51790 | -73.55709 | 29138 ft | 464 kts | 123° |
| 2026-05-08 02:09 | 22.49921 | -73.52893 | 28465 ft | 458 kts | 123° |
| 2026-05-08 02:09 | 22.48072 | -73.50114 | 27803 ft | 452 kts | 123° |
| 2026-05-08 02:10 | 22.46249 | -73.47376 | 27173 ft | 446 kts | 123° |
| 2026-05-08 02:10 | 22.44444 | -73.44664 | 26563 ft | 441 kts | 123° |
| 2026-05-08 02:10 | 22.42663 | -73.41990 | 25971 ft | 436 kts | 123° |
| 2026-05-08 02:10 | 22.40901 | -73.39345 | 25402 ft | 431 kts | 123° |
| 2026-05-08 02:11 | 22.39159 | -73.36729 | 24840 ft | 427 kts | 123° |
| 2026-05-08 02:11 | 22.37433 | -73.34139 | 24302 ft | 423 kts | 123° |
| 2026-05-08 02:11 | 22.35720 | -73.31573 | 23771 ft | 419 kts | 123° |
| 2026-05-08 02:11 | 22.34025 | -73.29031 | 23174 ft | 415 kts | 123° |
| 2026-05-08 02:12 | 22.32344 | -73.26513 | 22562 ft | 411 kts | 123° |
| 2026-05-08 02:12 | 22.30678 | -73.24019 | 21971 ft | 408 kts | 123° |
| 2026-05-08 02:12 | 22.29024 | -73.21546 | 21399 ft | 404 kts | 123° |
| 2026-05-08 02:12 | 22.27407 | -73.19130 | 20850 ft | 400 kts | 123° |
| 2026-05-08 02:13 | 22.25783 | -73.16703 | 20298 ft | 396 kts | 123° |
| 2026-05-08 02:13 | 22.24172 | -73.14298 | 19779 ft | 393 kts | 123° |
| 2026-05-08 02:13 | 22.22575 | -73.11915 | 19264 ft | 389 kts | 123° |
| 2026-05-08 02:13 | 22.20994 | -73.09557 | 18753 ft | 386 kts | 123° |
| 2026-05-08 02:14 | 22.19426 | -73.07218 | 18241 ft | 382 kts | 123° |
| 2026-05-08 02:14 | 22.17875 | -73.04903 | 17667 ft | 379 kts | 123° |
| 2026-05-08 02:14 | 22.16339 | -73.02609 | 17124 ft | 376 kts | 123° |
| 2026-05-08 02:14 | 22.14813 | -73.00334 | 16576 ft | 373 kts | 123° |
| 2026-05-08 02:15 | 22.13297 | -72.98078 | 16059 ft | 370 kts | 123° |
| 2026-05-08 02:15 | 22.11794 | -72.95841 | 15544 ft | 367 kts | 123° |
| 2026-05-08 02:15 | 22.10317 | -72.93645 | 15049 ft | 365 kts | 124° |
| 2026-05-08 02:15 | 22.08832 | -72.91435 | 14551 ft | 363 kts | 124° |
| 2026-05-08 02:16 | 22.07356 | -72.89239 | 14069 ft | 360 kts | 124° |
| 2026-05-08 02:16 | 22.05885 | -72.87052 | 13546 ft | 358 kts | 124° |
| 2026-05-08 02:16 | 22.04426 | -72.84885 | 13012 ft | 356 kts | 124° |
| 2026-05-08 02:16 | 22.02977 | -72.82734 | 12497 ft | 353 kts | 124° |
| 2026-05-08 02:17 | 22.01538 | -72.80604 | 11983 ft | 350 kts | 124° |
| 2026-05-08 02:17 | 22.00112 | -72.78491 | 11488 ft | 347 kts | 125° |
| 2026-05-08 02:17 | 21.99176 | -72.77105 | 11161 ft | 345 kts | 125° |
| 2026-05-08 02:17 | 21.97773 | -72.75021 | 10681 ft | 341 kts | 125° |
| 2026-05-08 02:18 | 21.96392 | -72.72962 | 10209 ft | 337 kts | 125° |
| 2026-05-08 02:18 | 21.95020 | -72.70927 | 9724 ft | 333 kts | 126° |
| 2026-05-08 02:18 | 21.93661 | -72.68922 | 9227 ft | 329 kts | 126° |
| 2026-05-08 02:18 | 21.92320 | -72.66945 | 8732 ft | 325 kts | 126° |
| 2026-05-08 02:19 | 21.91016 | -72.65021 | 8252 ft | 321 kts | 126° |
| 2026-05-08 02:19 | 21.89711 | -72.63094 | 7793 ft | 316 kts | 126° |
| 2026-05-08 02:19 | 21.88426 | -72.61191 | 7334 ft | 312 kts | 126° |
| 2026-05-08 02:19 | 21.87160 | -72.59317 | 6886 ft | 307 kts | 126° |
| 2026-05-08 02:20 | 21.85910 | -72.57469 | 6447 ft | 302 kts | 126° |
| 2026-05-08 02:20 | 21.84681 | -72.55654 | 5981 ft | 296 kts | 126° |
| 2026-05-08 02:20 | 21.83495 | -72.53908 | 5531 ft | 283 kts | 125° |
| 2026-05-08 02:20 | 21.82357 | -72.52234 | 5112 ft | 271 kts | 125° |
| 2026-05-08 02:21 | 21.81283 | -72.50647 | 4702 ft | 262 kts | 125° |
| 2026-05-08 02:21 | 21.80217 | -72.49071 | 4297 ft | 253 kts | 125° |
| 2026-05-08 02:21 | 21.79215 | -72.47587 | 3917 ft | 245 kts | 125° |
| 2026-05-08 02:21 | 21.78329 | -72.46056 | 3514 ft | 237 kts | 106° |
| 2026-05-08 02:22 | 21.78099 | -72.44349 | 3175 ft | 228 kts | 92° |
| 2026-05-08 02:22 | 21.78054 | -72.42659 | 2839 ft | 224 kts | 90° |
| 2026-05-08 02:22 | 21.78032 | -72.40999 | 2558 ft | 219 kts | 90° |
| 2026-05-08 02:22 | 21.77999 | -72.39374 | 2280 ft | 212 kts | 91° |
| 2026-05-08 02:23 | 21.77947 | -72.37821 | 1924 ft | 204 kts | 92° |
| 2026-05-08 02:23 | 21.77872 | -72.36370 | 1716 ft | 179 kts | 92° |
| 2026-05-08 02:23 | 21.77808 | -72.35127 | 1486 ft | 156 kts | 92° |
| 2026-05-08 02:23 | 21.77754 | -72.34014 | 1290 ft | 146 kts | 93° |
| 2026-05-08 02:24 | 21.77697 | -72.32947 | 1105 ft | 140 kts | 92° |
| 2026-05-08 02:24 | 21.77641 | -72.31908 | 935 ft | 139 kts | 92° |
| 2026-05-08 02:24 | 21.77605 | -72.30830 | 605 ft | 145 kts | 92° |
| 2026-05-08 02:24 | 21.77548 | -72.29772 | 287 ft | 146 kts | 93° |
| 2026-05-08 02:25 | 21.77465 | -72.28628 | 138 ft | 156 kts | 93° |
| 2026-05-08 02:25 | 21.77406 | -72.27556 | 40 ft | 130 kts | 92° |
| 2026-05-08 02:25 | 21.77373 | -72.26854 | 36 ft | 30 kts | 90° |
| 2026-05-08 02:25 | 21.77386 | -72.26781 | 35 ft | 0 kts | 108° |
| 2026-05-08 02:26 | 21.77377 | -72.26771 | 35 ft | 1 kts | 170° |
| 2026-05-08 02:26 | 21.77364 | -72.26792 | 35 ft | 4 kts | 274° |
| 2026-05-08 02:26 | 21.77369 | -72.26880 | 36 ft | 16 kts | 273° |
| 2026-05-08 02:26 | 21.77376 | -72.27006 | 36 ft | 17 kts | 274° |
| 2026-05-08 02:27 | 21.77418 | -72.27071 | 36 ft | 6 kts | 2° |
| 2026-05-08 02:27 | 21.77457 | -72.27070 | 37 ft | 5 kts | 0° |
| 2026-05-08 02:27 | 21.77488 | -72.27076 | 39 ft | 6 kts | 323° |
| 2026-05-08 02:27 | 21.77507 | -72.27132 | 39 ft | 10 kts | 277° |
| 2026-05-08 02:28 | 21.77532 | -72.27204 | 40 ft | 9 kts | 331° |
| 2026-05-08 02:28 | 21.77555 | -72.27204 | 40 ft | 3 kts | 30° |
| 2026-05-08 02:28 | 21.77566 | -72.27197 | 40 ft | 2 kts | 32° |
| 2026-05-08 02:28 | 21.77568 | -72.27196 | 40 ft | 0 kts | 32° |